首页
METAR-TAF:

METAR-TAF

机场 :

科羅拉多大峽谷, 亞利桑那州, 美国

纬度: 35-56-46N, 经度: 112-09-17W, 海拔: 2014米

当前天气观测

该预报发布于40分钟前的21:54 UTC
风速17节,风向西转西南,有时为28节阵风
温度 32°C
湿度 8%
气压 1018 hPa
能見度: 16.1公里
天空无云

METAR: KGCN 152154Z 24017G28KT 10SM CLR 32/M06 A3007 RMK AO2 PK WND 23034/2126 SLP076 T03221056

时间: 15:34 (22:34 UTC)

预报

该预报发布于5小时和9分钟前的17:25 UTC
预报有效从15日的 18点(UTC)到 16日的 18点(UTC)
风速13节,风向西南,有时为21节阵风
能見度: 10公里
天空无云
短暂存在
从 15日的 19点(UTC)到 15日的 23点(UTC)
风速16节,风向西转西南,有时为27节阵风
从 16日的 0230点(UTC)
风速5节,风向南转西南
能見度: 10公里
天空无云

TAF: KGCN 151725Z 1518/1618 23013G21KT P6SM SKC TEMPO 1519/1523 24016G27KT FM160230 21005KT P6SM SKC

超过4000个机场的气象观测和天气预报(METAR&TAF报告)。

可查询的气象台以黄色和红色小点在地图上表示。

将鼠标移到小点上方,可查看气象台名称。

然后点击查看天气观测和预报。

如需切换地图:点击带黑十字的绿色按钮放大地图;点击带横线的绿色按钮缩小地图;或者点击绿色箭头查看邻近地区的地图。


METAR-TAF: